sensor_id;sensor_type;location;lat;lon;timestamp;P1;durP1;ratioP1;P2;durP2;ratioP2
357;SDS011;167;47.558;7.602;2023-02-21T00:01:37;5.47;;;4.03;;
357;SDS011;167;47.558;7.602;2023-02-21T00:04:22;4.10;;;3.80;;
357;SDS011;167;47.558;7.602;2023-02-21T00:07:06;6.93;;;4.53;;
357;SDS011;167;47.558;7.602;2023-02-21T00:09:51;5.40;;;4.50;;
357;SDS011;167;47.558;7.602;2023-02-21T00:12:35;4.93;;;4.53;;
357;SDS011;167;47.558;7.602;2023-02-21T00:15:20;4.35;;;3.95;;
357;SDS011;167;47.558;7.602;2023-02-21T00:18:05;4.60;;;4.20;;
357;SDS011;167;47.558;7.602;2023-02-21T00:20:49;6.10;;;4.60;;
357;SDS011;167;47.558;7.602;2023-02-21T00:23:34;4.80;;;4.33;;
357;SDS011;167;47.558;7.602;2023-02-21T00:26:19;4.97;;;4.57;;
357;SDS011;167;47.558;7.602;2023-02-21T00:29:04;4.67;;;4.27;;
357;SDS011;167;47.558;7.602;2023-02-21T00:31:48;5.03;;;4.63;;
357;SDS011;167;47.558;7.602;2023-02-21T00:34:33;5.60;;;4.47;;
357;SDS011;167;47.558;7.602;2023-02-21T00:37:17;3.97;;;3.67;;
357;SDS011;167;47.558;7.602;2023-02-21T00:40:02;5.30;;;4.90;;
357;SDS011;167;47.558;7.602;2023-02-21T00:42:46;4.80;;;4.40;;
357;SDS011;167;47.558;7.602;2023-02-21T00:45:31;5.77;;;5.03;;
357;SDS011;167;47.558;7.602;2023-02-21T00:48:19;5.07;;;4.57;;
357;SDS011;167;47.558;7.602;2023-02-21T00:51:04;5.57;;;4.80;;
357;SDS011;167;47.558;7.602;2023-02-21T00:53:49;5.83;;;4.50;;
357;SDS011;167;47.558;7.602;2023-02-21T00:56:33;5.80;;;5.30;;
357;SDS011;167;47.558;7.602;2023-02-21T00:59:18;5.20;;;4.70;;
357;SDS011;167;47.558;7.602;2023-02-21T01:02:02;5.17;;;4.63;;
357;SDS011;167;47.558;7.602;2023-02-21T01:04:47;5.63;;;5.10;;
357;SDS011;167;47.558;7.602;2023-02-21T01:07:32;5.13;;;4.60;;
357;SDS011;167;47.558;7.602;2023-02-21T01:10:16;5.20;;;4.70;;
357;SDS011;167;47.558;7.602;2023-02-21T01:13:01;6.90;;;5.13;;
357;SDS011;167;47.558;7.602;2023-02-21T01:15:45;4.87;;;4.40;;
357;SDS011;167;47.558;7.602;2023-02-21T01:18:30;4.30;;;4.00;;
357;SDS011;167;47.558;7.602;2023-02-21T01:21:15;4.97;;;4.60;;
357;SDS011;167;47.558;7.602;2023-02-21T01:24:00;5.23;;;4.70;;
357;SDS011;167;47.558;7.602;2023-02-21T01:26:45;5.40;;;4.90;;
357;SDS011;167;47.558;7.602;2023-02-21T01:29:30;4.67;;;4.27;;
357;SDS011;167;47.558;7.602;2023-02-21T01:32:15;4.28;;;3.88;;
357;SDS011;167;47.558;7.602;2023-02-21T01:35:00;4.18;;;3.88;;
357;SDS011;167;47.558;7.602;2023-02-21T01:37:44;4.97;;;4.57;;
357;SDS011;167;47.558;7.602;2023-02-21T01:40:29;4.53;;;4.07;;
357;SDS011;167;47.558;7.602;2023-02-21T01:43:15;5.17;;;4.40;;
357;SDS011;167;47.558;7.602;2023-02-21T01:46:00;7.17;;;4.47;;
357;SDS011;167;47.558;7.602;2023-02-21T01:48:45;5.30;;;4.77;;
357;SDS011;167;47.558;7.602;2023-02-21T01:51:32;4.83;;;4.43;;
357;SDS011;167;47.558;7.602;2023-02-21T01:54:18;4.70;;;4.30;;
357;SDS011;167;47.558;7.602;2023-02-21T01:57:04;4.30;;;3.90;;
357;SDS011;167;47.558;7.602;2023-02-21T01:59:49;5.83;;;4.23;;
357;SDS011;167;47.558;7.602;2023-02-21T02:05:38;4.93;;;4.43;;
357;SDS011;167;47.558;7.602;2023-02-21T02:08:24;3.97;;;3.60;;
357;SDS011;167;47.558;7.602;2023-02-21T02:21:47;4.10;;;3.53;;
357;SDS011;167;47.558;7.602;2023-02-21T02:24:43;3.90;;;3.50;;
357;SDS011;167;47.558;7.602;2023-02-21T02:37:29;4.67;;;4.23;;
357;SDS011;167;47.558;7.602;2023-02-21T02:45:14;4.83;;;4.43;;
357;SDS011;167;47.558;7.602;2023-02-21T02:47:43;5.00;;;4.67;;
357;SDS011;167;47.558;7.602;2023-02-21T02:50:10;5.57;;;5.07;;
357;SDS011;167;47.558;7.602;2023-02-21T02:52:37;5.10;;;4.70;;
357;SDS011;167;47.558;7.602;2023-02-21T02:55:17;5.05;;;4.75;;
357;SDS011;167;47.558;7.602;2023-02-21T02:57:45;5.47;;;4.97;;
357;SDS011;167;47.558;7.602;2023-02-21T03:00:13;6.17;;;5.70;;
357;SDS011;167;47.558;7.602;2023-02-21T03:05:18;5.87;;;5.37;;
357;SDS011;167;47.558;7.602;2023-02-21T03:10:17;5.10;;;4.70;;
357;SDS011;167;47.558;7.602;2023-02-21T03:15:14;5.60;;;5.10;;
357;SDS011;167;47.558;7.602;2023-02-21T03:17:42;5.00;;;4.53;;
357;SDS011;167;47.558;7.602;2023-02-21T03:20:10;5.10;;;4.60;;
357;SDS011;167;47.558;7.602;2023-02-21T03:22:37;5.20;;;4.73;;
357;SDS011;167;47.558;7.602;2023-02-21T03:25:03;5.00;;;4.63;;
357;SDS011;167;47.558;7.602;2023-02-21T03:27:30;5.63;;;4.10;;
357;SDS011;167;47.558;7.602;2023-02-21T03:29:57;7.03;;;4.17;;
357;SDS011;167;47.558;7.602;2023-02-21T03:34:56;4.67;;;4.30;;
357;SDS011;167;47.558;7.602;2023-02-21T03:37:30;5.10;;;4.50;;
357;SDS011;167;47.558;7.602;2023-02-21T03:39:56;4.00;;;3.70;;
357;SDS011;167;47.558;7.602;2023-02-21T03:42:22;5.40;;;4.40;;
357;SDS011;167;47.558;7.602;2023-02-21T03:44:48;4.73;;;3.53;;
357;SDS011;167;47.558;7.602;2023-02-21T03:47:14;3.80;;;3.37;;
357;SDS011;167;47.558;7.602;2023-02-21T03:49:40;4.73;;;4.33;;
357;SDS011;167;47.558;7.602;2023-02-21T03:52:06;4.47;;;4.17;;
357;SDS011;167;47.558;7.602;2023-02-21T03:54:36;3.90;;;3.60;;
357;SDS011;167;47.558;7.602;2023-02-21T03:57:02;5.17;;;4.63;;
357;SDS011;167;47.558;7.602;2023-02-21T03:59:28;7.57;;;4.63;;
357;SDS011;167;47.558;7.602;2023-02-21T04:01:54;4.73;;;4.20;;
357;SDS011;167;47.558;7.602;2023-02-21T04:04:20;6.90;;;5.17;;
357;SDS011;167;47.558;7.602;2023-02-21T04:06:46;6.40;;;5.47;;
357;SDS011;167;47.558;7.602;2023-02-21T04:09:12;5.10;;;4.60;;
357;SDS011;167;47.558;7.602;2023-02-21T04:11:41;5.13;;;4.73;;
357;SDS011;167;47.558;7.602;2023-02-21T04:14:07;4.90;;;4.10;;
357;SDS011;167;47.558;7.602;2023-02-21T04:16:34;5.27;;;4.40;;
357;SDS011;167;47.558;7.602;2023-02-21T04:19:00;5.13;;;4.70;;
357;SDS011;167;47.558;7.602;2023-02-21T04:21:26;5.60;;;4.00;;
357;SDS011;167;47.558;7.602;2023-02-21T04:23:52;4.15;;;3.85;;
357;SDS011;167;47.558;7.602;2023-02-21T04:26:18;5.53;;;4.13;;
357;SDS011;167;47.558;7.602;2023-02-21T04:28:44;3.20;;;3.00;;
357;SDS011;167;47.558;7.602;2023-02-21T04:31:10;4.67;;;4.27;;
357;SDS011;167;47.558;7.602;2023-02-21T04:33:39;4.63;;;4.13;;
357;SDS011;167;47.558;7.602;2023-02-21T04:36:05;4.45;;;4.15;;
357;SDS011;167;47.558;7.602;2023-02-21T04:38:31;3.93;;;3.63;;
357;SDS011;167;47.558;7.602;2023-02-21T04:40:57;4.60;;;4.30;;
357;SDS011;167;47.558;7.602;2023-02-21T04:43:23;4.47;;;3.50;;
357;SDS011;167;47.558;7.602;2023-02-21T04:45:49;4.73;;;3.70;;
357;SDS011;167;47.558;7.602;2023-02-21T04:48:15;4.07;;;3.30;;
357;SDS011;167;47.558;7.602;2023-02-21T04:50:41;5.00;;;4.33;;
357;SDS011;167;47.558;7.602;2023-02-21T04:53:07;5.40;;;4.20;;
357;SDS011;167;47.558;7.602;2023-02-21T04:55:33;5.20;;;4.00;;
357;SDS011;167;47.558;7.602;2023-02-21T04:57:59;4.93;;;4.50;;
357;SDS011;167;47.558;7.602;2023-02-21T05:00:25;4.13;;;3.90;;
357;SDS011;167;47.558;7.602;2023-02-21T05:02:51;4.03;;;3.63;;
357;SDS011;167;47.558;7.602;2023-02-21T05:05:17;3.57;;;3.37;;
357;SDS011;167;47.558;7.602;2023-02-21T05:07:43;4.47;;;4.10;;
357;SDS011;167;47.558;7.602;2023-02-21T05:10:09;4.00;;;3.47;;
357;SDS011;167;47.558;7.602;2023-02-21T05:12:35;4.63;;;3.50;;
357;SDS011;167;47.558;7.602;2023-02-21T05:15:03;3.20;;;2.90;;
357;SDS011;167;47.558;7.602;2023-02-21T05:17:29;3.67;;;3.38;;
357;SDS011;167;47.558;7.602;2023-02-21T05:19:55;4.23;;;3.13;;
357;SDS011;167;47.558;7.602;2023-02-21T05:22:21;3.50;;;3.30;;
357;SDS011;167;47.558;7.602;2023-02-21T05:24:47;4.93;;;3.47;;
357;SDS011;167;47.558;7.602;2023-02-21T05:27:14;3.58;;;3.30;;
357;SDS011;167;47.558;7.602;2023-02-21T05:29:41;4.87;;;3.00;;
357;SDS011;167;47.558;7.602;2023-02-21T05:32:07;4.60;;;3.17;;
357;SDS011;167;47.558;7.602;2023-02-21T05:34:33;3.25;;;2.97;;
357;SDS011;167;47.558;7.602;2023-02-21T05:36:59;3.47;;;3.00;;
357;SDS011;167;47.558;7.602;2023-02-21T05:39:25;5.43;;;4.03;;
357;SDS011;167;47.558;7.602;2023-02-21T05:41:51;4.07;;;3.70;;
357;SDS011;167;47.558;7.602;2023-02-21T05:46:48;4.63;;;4.03;;
357;SDS011;167;47.558;7.602;2023-02-21T05:49:14;4.10;;;3.78;;
357;SDS011;167;47.558;7.602;2023-02-21T05:51:41;4.93;;;4.37;;
357;SDS011;167;47.558;7.602;2023-02-21T05:54:08;3.97;;;3.63;;
357;SDS011;167;47.558;7.602;2023-02-21T05:56:38;5.25;;;4.72;;
357;SDS011;167;47.558;7.602;2023-02-21T05:59:04;4.43;;;3.97;;
357;SDS011;167;47.558;7.602;2023-02-21T06:01:30;3.97;;;3.13;;
357;SDS011;167;47.558;7.602;2023-02-21T06:03:56;4.30;;;4.00;;
357;SDS011;167;47.558;7.602;2023-02-21T06:06:22;4.30;;;3.90;;
357;SDS011;167;47.558;7.602;2023-02-21T06:08:48;4.10;;;3.70;;
357;SDS011;167;47.558;7.602;2023-02-21T06:11:20;3.63;;;3.33;;
357;SDS011;167;47.558;7.602;2023-02-21T06:13:49;4.50;;;4.00;;
357;SDS011;167;47.558;7.602;2023-02-21T06:16:15;4.10;;;3.80;;
357;SDS011;167;47.558;7.602;2023-02-21T06:18:41;7.20;;;3.97;;
357;SDS011;167;47.558;7.602;2023-02-21T06:21:07;4.63;;;4.10;;
357;SDS011;167;47.558;7.602;2023-02-21T06:23:33;3.87;;;3.57;;
357;SDS011;167;47.558;7.602;2023-02-21T06:25:59;4.73;;;4.33;;
357;SDS011;167;47.558;7.602;2023-02-21T06:28:28;3.90;;;3.50;;
357;SDS011;167;47.558;7.602;2023-02-21T06:30:54;6.33;;;3.80;;
357;SDS011;167;47.558;7.602;2023-02-21T06:33:20;4.00;;;3.70;;
357;SDS011;167;47.558;7.602;2023-02-21T06:35:46;4.00;;;3.60;;
357;SDS011;167;47.558;7.602;2023-02-21T06:38:12;4.93;;;4.53;;
357;SDS011;167;47.558;7.602;2023-02-21T06:40:38;3.70;;;3.30;;
357;SDS011;167;47.558;7.602;2023-02-21T06:43:05;7.77;;;4.00;;
357;SDS011;167;47.558;7.602;2023-02-21T06:45:31;8.75;;;4.00;;
357;SDS011;167;47.558;7.602;2023-02-21T06:47:57;5.23;;;3.23;;
357;SDS011;167;47.558;7.602;2023-02-21T06:50:23;5.40;;;4.53;;
357;SDS011;167;47.558;7.602;2023-02-21T06:52:49;3.50;;;3.20;;
357;SDS011;167;47.558;7.602;2023-02-21T06:55:19;4.88;;;4.20;;
357;SDS011;167;47.558;7.602;2023-02-21T06:57:45;4.03;;;3.70;;
357;SDS011;167;47.558;7.602;2023-02-21T07:00:11;7.67;;;4.03;;
357;SDS011;167;47.558;7.602;2023-02-21T07:02:37;4.45;;;4.00;;
357;SDS011;167;47.558;7.602;2023-02-21T07:05:04;4.43;;;4.10;;
357;SDS011;167;47.558;7.602;2023-02-21T07:07:30;3.53;;;3.23;;
357;SDS011;167;47.558;7.602;2023-02-21T07:09:56;7.20;;;4.40;;
357;SDS011;167;47.558;7.602;2023-02-21T07:12:22;9.73;;;3.60;;
357;SDS011;167;47.558;7.602;2023-02-21T07:14:48;3.80;;;3.50;;
357;SDS011;167;47.558;7.602;2023-02-21T07:17:14;4.40;;;4.00;;
357;SDS011;167;47.558;7.602;2023-02-21T07:19:40;3.97;;;3.57;;
357;SDS011;167;47.558;7.602;2023-02-21T07:22:06;5.47;;;3.77;;
357;SDS011;167;47.558;7.602;2023-02-21T07:24:32;3.60;;;3.30;;
357;SDS011;167;47.558;7.602;2023-02-21T07:26:58;4.10;;;3.80;;
357;SDS011;167;47.558;7.602;2023-02-21T07:29:24;5.53;;;4.50;;
357;SDS011;167;47.558;7.602;2023-02-21T07:31:50;6.13;;;4.33;;
357;SDS011;167;47.558;7.602;2023-02-21T07:34:16;5.40;;;4.20;;
357;SDS011;167;47.558;7.602;2023-02-21T07:36:44;4.27;;;3.97;;
357;SDS011;167;47.558;7.602;2023-02-21T07:39:10;4.33;;;4.07;;
357;SDS011;167;47.558;7.602;2023-02-21T07:41:36;5.13;;;4.82;;
357;SDS011;167;47.558;7.602;2023-02-21T07:44:02;5.23;;;4.60;;
357;SDS011;167;47.558;7.602;2023-02-21T07:46:28;4.67;;;4.27;;
357;SDS011;167;47.558;7.602;2023-02-21T07:48:55;6.13;;;4.37;;
357;SDS011;167;47.558;7.602;2023-02-21T07:51:21;4.47;;;4.17;;
357;SDS011;167;47.558;7.602;2023-02-21T07:53:47;7.10;;;4.77;;
357;SDS011;167;47.558;7.602;2023-02-21T07:56:13;4.72;;;4.32;;
357;SDS011;167;47.558;7.602;2023-02-21T07:58:39;5.00;;;4.60;;
357;SDS011;167;47.558;7.602;2023-02-21T08:01:05;4.63;;;4.33;;
357;SDS011;167;47.558;7.602;2023-02-21T08:03:31;4.87;;;4.47;;
357;SDS011;167;47.558;7.602;2023-02-21T08:05:58;4.67;;;4.27;;
357;SDS011;167;47.558;7.602;2023-02-21T08:08:24;4.73;;;4.33;;
357;SDS011;167;47.558;7.602;2023-02-21T08:10:50;4.90;;;4.50;;
357;SDS011;167;47.558;7.602;2023-02-21T08:13:16;5.60;;;5.20;;
357;SDS011;167;47.558;7.602;2023-02-21T08:15:42;6.00;;;5.03;;
357;SDS011;167;47.558;7.602;2023-02-21T08:18:15;4.57;;;4.27;;
357;SDS011;167;47.558;7.602;2023-02-21T08:20:43;4.40;;;4.10;;
357;SDS011;167;47.558;7.602;2023-02-21T08:23:09;6.60;;;4.37;;
357;SDS011;167;47.558;7.602;2023-02-21T08:25:35;4.67;;;4.00;;
357;SDS011;167;47.558;7.602;2023-02-21T08:28:01;5.03;;;4.73;;
357;SDS011;167;47.558;7.602;2023-02-21T08:30:27;4.97;;;4.55;;
357;SDS011;167;47.558;7.602;2023-02-21T08:32:53;7.73;;;5.23;;
357;SDS011;167;47.558;7.602;2023-02-21T08:35:19;6.50;;;5.43;;
357;SDS011;167;47.558;7.602;2023-02-21T08:37:45;6.57;;;5.77;;
357;SDS011;167;47.558;7.602;2023-02-21T08:40:12;6.15;;;5.65;;
357;SDS011;167;47.558;7.602;2023-02-21T08:42:38;6.30;;;5.70;;
357;SDS011;167;47.558;7.602;2023-02-21T08:45:04;6.27;;;5.73;;
357;SDS011;167;47.558;7.602;2023-02-21T08:47:33;9.10;;;6.72;;
357;SDS011;167;47.558;7.602;2023-02-21T08:49:59;9.00;;;8.50;;
357;SDS011;167;47.558;7.602;2023-02-21T08:52:25;29.23;;;8.13;;
357;SDS011;167;47.558;7.602;2023-02-21T08:54:52;11.27;;;10.77;;
357;SDS011;167;47.558;7.602;2023-02-21T08:57:18;24.43;;;8.50;;
357;SDS011;167;47.558;7.602;2023-02-21T08:59:43;6.47;;;6.07;;
357;SDS011;167;47.558;7.602;2023-02-21T09:02:16;6.72;;;6.30;;
357;SDS011;167;47.558;7.602;2023-02-21T09:04:43;9.57;;;8.97;;
357;SDS011;167;47.558;7.602;2023-02-21T09:07:10;12.23;;;11.13;;
357;SDS011;167;47.558;7.602;2023-02-21T09:09:37;7.67;;;7.17;;
357;SDS011;167;47.558;7.602;2023-02-21T09:12:03;6.67;;;6.37;;
357;SDS011;167;47.558;7.602;2023-02-21T09:14:32;6.60;;;6.30;;
357;SDS011;167;47.558;7.602;2023-02-21T09:16:58;9.70;;;9.00;;
357;SDS011;167;47.558;7.602;2023-02-21T09:19:24;7.57;;;6.87;;
357;SDS011;167;47.558;7.602;2023-02-21T09:21:50;8.00;;;6.70;;
357;SDS011;167;47.558;7.602;2023-02-21T09:24:19;7.33;;;6.93;;
357;SDS011;167;47.558;7.602;2023-02-21T09:26:49;8.17;;;7.67;;
357;SDS011;167;47.558;7.602;2023-02-21T09:29:18;7.17;;;6.77;;
357;SDS011;167;47.558;7.602;2023-02-21T09:31:44;6.30;;;5.93;;
357;SDS011;167;47.558;7.602;2023-02-21T09:34:10;6.97;;;6.57;;
357;SDS011;167;47.558;7.602;2023-02-21T09:36:36;7.73;;;6.33;;
357;SDS011;167;47.558;7.602;2023-02-21T09:39:02;6.50;;;6.10;;
357;SDS011;167;47.558;7.602;2023-02-21T09:41:30;7.50;;;7.00;;
357;SDS011;167;47.558;7.602;2023-02-21T09:43:57;6.53;;;6.18;;
357;SDS011;167;47.558;7.602;2023-02-21T09:46:33;7.80;;;7.40;;
357;SDS011;167;47.558;7.602;2023-02-21T09:49:00;7.53;;;6.83;;
357;SDS011;167;47.558;7.602;2023-02-21T09:51:26;13.80;;;12.90;;
357;SDS011;167;47.558;7.602;2023-02-21T09:53:53;7.77;;;7.17;;
357;SDS011;167;47.558;7.602;2023-02-21T09:56:41;8.75;;;8.20;;
357;SDS011;167;47.558;7.602;2023-02-21T09:59:10;7.33;;;6.93;;
357;SDS011;167;47.558;7.602;2023-02-21T10:06:49;8.87;;;7.70;;
357;SDS011;167;47.558;7.602;2023-02-21T10:09:24;7.43;;;7.03;;
357;SDS011;167;47.558;7.602;2023-02-21T10:17:20;5.80;;;5.50;;
357;SDS011;167;47.558;7.602;2023-02-21T10:19:48;6.40;;;5.90;;
357;SDS011;167;47.558;7.602;2023-02-21T10:22:18;6.20;;;5.80;;
357;SDS011;167;47.558;7.602;2023-02-21T10:24:44;6.10;;;5.67;;
357;SDS011;167;47.558;7.602;2023-02-21T10:27:15;5.30;;;5.00;;
357;SDS011;167;47.558;7.602;2023-02-21T10:30:02;5.70;;;5.20;;
357;SDS011;167;47.558;7.602;2023-02-21T10:32:29;5.47;;;5.17;;
357;SDS011;167;47.558;7.602;2023-02-21T10:34:55;5.70;;;5.33;;
357;SDS011;167;47.558;7.602;2023-02-21T10:39:52;9.47;;;4.73;;
357;SDS011;167;47.558;7.602;2023-02-21T10:42:30;6.10;;;5.50;;
357;SDS011;167;47.558;7.602;2023-02-21T10:44:59;5.60;;;5.20;;
357;SDS011;167;47.558;7.602;2023-02-21T10:47:27;12.37;;;5.50;;
357;SDS011;167;47.558;7.602;2023-02-21T10:49:59;6.20;;;5.57;;
357;SDS011;167;47.558;7.602;2023-02-21T10:52:26;6.27;;;5.70;;
357;SDS011;167;47.558;7.602;2023-02-21T10:57:27;18.03;;;5.93;;
357;SDS011;167;47.558;7.602;2023-02-21T10:59:55;5.97;;;5.40;;
357;SDS011;167;47.558;7.602;2023-02-21T11:02:35;4.93;;;4.63;;
357;SDS011;167;47.558;7.602;2023-02-21T11:05:22;6.30;;;4.83;;
357;SDS011;167;47.558;7.602;2023-02-21T11:08:02;5.30;;;4.20;;
357;SDS011;167;47.558;7.602;2023-02-21T11:13:03;4.73;;;4.47;;
357;SDS011;167;47.558;7.602;2023-02-21T11:15:30;4.60;;;4.40;;
357;SDS011;167;47.558;7.602;2023-02-21T11:20:37;4.63;;;4.20;;
357;SDS011;167;47.558;7.602;2023-02-21T11:23:03;4.13;;;3.93;;
357;SDS011;167;47.558;7.602;2023-02-21T11:25:32;4.47;;;4.13;;
357;SDS011;167;47.558;7.602;2023-02-21T11:28:05;4.50;;;3.77;;
357;SDS011;167;47.558;7.602;2023-02-21T11:30:33;4.33;;;4.13;;
357;SDS011;167;47.558;7.602;2023-02-21T11:33:00;3.93;;;3.73;;
357;SDS011;167;47.558;7.602;2023-02-21T11:35:31;4.67;;;4.20;;
357;SDS011;167;47.558;7.602;2023-02-21T11:37:59;3.58;;;3.38;;
357;SDS011;167;47.558;7.602;2023-02-21T11:48:27;4.17;;;3.87;;
357;SDS011;167;47.558;7.602;2023-02-21T11:50:57;3.53;;;3.33;;
357;SDS011;167;47.558;7.602;2023-02-21T11:53:25;4.40;;;4.13;;
357;SDS011;167;47.558;7.602;2023-02-21T11:55:59;4.30;;;4.00;;
357;SDS011;167;47.558;7.602;2023-02-21T11:58:30;4.43;;;4.23;;
357;SDS011;167;47.558;7.602;2023-02-21T12:01:00;4.00;;;3.80;;
357;SDS011;167;47.558;7.602;2023-02-21T12:11:33;4.90;;;4.53;;
357;SDS011;167;47.558;7.602;2023-02-21T12:25:10;6.82;;;3.85;;
357;SDS011;167;47.558;7.602;2023-02-21T12:37:58;10.40;;;4.53;;
357;SDS011;167;47.558;7.602;2023-02-21T12:43:03;4.97;;;4.40;;
357;SDS011;167;47.558;7.602;2023-02-21T12:50:45;8.10;;;4.10;;
357;SDS011;167;47.558;7.602;2023-02-21T12:53:19;5.30;;;4.80;;
357;SDS011;167;47.558;7.602;2023-02-21T12:55:47;4.50;;;4.10;;
357;SDS011;167;47.558;7.602;2023-02-21T13:01:03;4.40;;;4.20;;
357;SDS011;167;47.558;7.602;2023-02-21T13:06:08;6.40;;;3.97;;
357;SDS011;167;47.558;7.602;2023-02-21T13:11:28;6.23;;;4.80;;
357;SDS011;167;47.558;7.602;2023-02-21T13:13:56;5.03;;;4.53;;
357;SDS011;167;47.558;7.602;2023-02-21T13:16:22;4.77;;;4.47;;
357;SDS011;167;47.558;7.602;2023-02-21T13:18:50;4.73;;;4.43;;
357;SDS011;167;47.558;7.602;2023-02-21T13:24:02;5.20;;;4.90;;
357;SDS011;167;47.558;7.602;2023-02-21T13:29:17;4.90;;;4.43;;
357;SDS011;167;47.558;7.602;2023-02-21T13:31:44;4.60;;;4.40;;
357;SDS011;167;47.558;7.602;2023-02-21T13:34:10;3.90;;;3.70;;
357;SDS011;167;47.558;7.602;2023-02-21T13:39:10;5.33;;;4.73;;
357;SDS011;167;47.558;7.602;2023-02-21T13:41:38;6.32;;;4.40;;
357;SDS011;167;47.558;7.602;2023-02-21T13:44:10;6.10;;;4.30;;
357;SDS011;167;47.558;7.602;2023-02-21T13:51:48;5.07;;;4.50;;
357;SDS011;167;47.558;7.602;2023-02-21T13:54:23;4.03;;;3.83;;
357;SDS011;167;47.558;7.602;2023-02-21T13:56:50;4.27;;;3.97;;
357;SDS011;167;47.558;7.602;2023-02-21T14:01:49;4.80;;;4.50;;
357;SDS011;167;47.558;7.602;2023-02-21T14:07:00;5.37;;;4.10;;
357;SDS011;167;47.558;7.602;2023-02-21T14:09:27;5.10;;;4.03;;
357;SDS011;167;47.558;7.602;2023-02-21T14:11:53;4.27;;;3.97;;
357;SDS011;167;47.558;7.602;2023-02-21T14:14:20;4.23;;;4.00;;
357;SDS011;167;47.558;7.602;2023-02-21T14:16:51;4.55;;;4.25;;
357;SDS011;167;47.558;7.602;2023-02-21T14:22:13;5.13;;;4.80;;
357;SDS011;167;47.558;7.602;2023-02-21T14:24:43;5.80;;;4.47;;
357;SDS011;167;47.558;7.602;2023-02-21T14:32:23;6.03;;;5.50;;
357;SDS011;167;47.558;7.602;2023-02-21T14:39:48;6.00;;;4.87;;
357;SDS011;167;47.558;7.602;2023-02-21T14:49:55;5.43;;;5.03;;
357;SDS011;167;47.558;7.602;2023-02-21T14:52:32;5.23;;;4.77;;
357;SDS011;167;47.558;7.602;2023-02-21T15:00:07;5.00;;;4.70;;
357;SDS011;167;47.558;7.602;2023-02-21T15:02:43;5.57;;;5.17;;
357;SDS011;167;47.558;7.602;2023-02-21T15:12:41;5.30;;;4.65;;
357;SDS011;167;47.558;7.602;2023-02-21T15:15:12;5.37;;;4.87;;
357;SDS011;167;47.558;7.602;2023-02-21T15:17:39;5.70;;;5.20;;
357;SDS011;167;47.558;7.602;2023-02-21T15:20:12;5.63;;;4.80;;
357;SDS011;167;47.558;7.602;2023-02-21T15:22:38;5.03;;;4.63;;
357;SDS011;167;47.558;7.602;2023-02-21T15:27:37;6.33;;;5.20;;
357;SDS011;167;47.558;7.602;2023-02-21T15:30:34;6.20;;;5.70;;
357;SDS011;167;47.558;7.602;2023-02-21T15:33:18;4.97;;;4.57;;
357;SDS011;167;47.558;7.602;2023-02-21T15:38:15;5.13;;;4.37;;
357;SDS011;167;47.558;7.602;2023-02-21T15:40:42;5.73;;;5.23;;
357;SDS011;167;47.558;7.602;2023-02-21T15:43:10;5.67;;;5.17;;
357;SDS011;167;47.558;7.602;2023-02-21T15:45:43;5.50;;;4.93;;
357;SDS011;167;47.558;7.602;2023-02-21T15:48:11;5.30;;;4.90;;
357;SDS011;167;47.558;7.602;2023-02-21T15:50:39;6.90;;;5.07;;
357;SDS011;167;47.558;7.602;2023-02-21T15:53:18;5.90;;;5.25;;
357;SDS011;167;47.558;7.602;2023-02-21T15:55:45;5.47;;;4.97;;
357;SDS011;167;47.558;7.602;2023-02-21T16:00:39;5.97;;;5.50;;
357;SDS011;167;47.558;7.602;2023-02-21T16:03:24;12.60;;;11.13;;
357;SDS011;167;47.558;7.602;2023-02-21T16:05:50;13.73;;;6.13;;
357;SDS011;167;47.558;7.602;2023-02-21T16:08:16;7.33;;;5.57;;
357;SDS011;167;47.558;7.602;2023-02-21T16:10:43;6.55;;;4.85;;
357;SDS011;167;47.558;7.602;2023-02-21T16:13:09;5.90;;;5.40;;
357;SDS011;167;47.558;7.602;2023-02-21T16:15:36;5.50;;;5.10;;
357;SDS011;167;47.558;7.602;2023-02-21T16:18:05;7.25;;;5.00;;
357;SDS011;167;47.558;7.602;2023-02-21T16:20:38;6.50;;;5.83;;
357;SDS011;167;47.558;7.602;2023-02-21T16:25:56;5.30;;;4.57;;
357;SDS011;167;47.558;7.602;2023-02-21T16:28:23;6.72;;;5.45;;
357;SDS011;167;47.558;7.602;2023-02-21T16:30:49;5.43;;;4.93;;
357;SDS011;167;47.558;7.602;2023-02-21T16:33:15;5.83;;;4.70;;
357;SDS011;167;47.558;7.602;2023-02-21T16:35:41;5.90;;;5.40;;
357;SDS011;167;47.558;7.602;2023-02-21T16:38:16;8.50;;;6.10;;
357;SDS011;167;47.558;7.602;2023-02-21T16:40:42;7.85;;;7.07;;
357;SDS011;167;47.558;7.602;2023-02-21T16:43:14;9.50;;;6.90;;
357;SDS011;167;47.558;7.602;2023-02-21T16:45:41;10.60;;;6.60;;
357;SDS011;167;47.558;7.602;2023-02-21T16:48:09;7.97;;;6.17;;
357;SDS011;167;47.558;7.602;2023-02-21T16:50:38;5.90;;;5.40;;
357;SDS011;167;47.558;7.602;2023-02-21T16:53:05;8.40;;;5.67;;
357;SDS011;167;47.558;7.602;2023-02-21T16:55:31;5.43;;;4.43;;
357;SDS011;167;47.558;7.602;2023-02-21T16:58:01;5.10;;;4.70;;
357;SDS011;167;47.558;7.602;2023-02-21T17:00:28;5.23;;;4.77;;
357;SDS011;167;47.558;7.602;2023-02-21T17:02:55;6.00;;;5.50;;
357;SDS011;167;47.558;7.602;2023-02-21T17:05:21;4.90;;;4.50;;
357;SDS011;167;47.558;7.602;2023-02-21T17:07:48;5.17;;;4.77;;
357;SDS011;167;47.558;7.602;2023-02-21T17:10:15;6.30;;;4.93;;
357;SDS011;167;47.558;7.602;2023-02-21T17:12:42;5.75;;;5.22;;
357;SDS011;167;47.558;7.602;2023-02-21T17:15:08;5.95;;;4.32;;
357;SDS011;167;47.558;7.602;2023-02-21T17:17:37;5.60;;;5.10;;
357;SDS011;167;47.558;7.602;2023-02-21T17:20:04;4.80;;;4.40;;
357;SDS011;167;47.558;7.602;2023-02-21T17:22:30;4.20;;;3.90;;
357;SDS011;167;47.558;7.602;2023-02-21T17:24:56;4.90;;;4.43;;
357;SDS011;167;47.558;7.602;2023-02-21T17:27:22;6.10;;;4.53;;
357;SDS011;167;47.558;7.602;2023-02-21T17:29:48;5.70;;;4.40;;
357;SDS011;167;47.558;7.602;2023-02-21T17:32:14;5.40;;;4.82;;
357;SDS011;167;47.558;7.602;2023-02-21T17:34:40;5.50;;;5.00;;
357;SDS011;167;47.558;7.602;2023-02-21T17:37:07;4.78;;;4.30;;
357;SDS011;167;47.558;7.602;2023-02-21T17:39:33;4.95;;;4.35;;
357;SDS011;167;47.558;7.602;2023-02-21T17:42:00;4.93;;;4.63;;
357;SDS011;167;47.558;7.602;2023-02-21T17:44:26;5.10;;;4.30;;
357;SDS011;167;47.558;7.602;2023-02-21T17:46:53;6.27;;;4.27;;
357;SDS011;167;47.558;7.602;2023-02-21T17:49:21;5.67;;;4.70;;
357;SDS011;167;47.558;7.602;2023-02-21T17:51:47;5.43;;;4.87;;
357;SDS011;167;47.558;7.602;2023-02-21T17:54:14;4.27;;;3.97;;
357;SDS011;167;47.558;7.602;2023-02-21T17:56:41;4.73;;;4.30;;
357;SDS011;167;47.558;7.602;2023-02-21T17:59:07;7.63;;;4.87;;
357;SDS011;167;47.558;7.602;2023-02-21T18:01:33;6.13;;;5.53;;
357;SDS011;167;47.558;7.602;2023-02-21T18:03:59;5.83;;;4.70;;
357;SDS011;167;47.558;7.602;2023-02-21T18:06:25;9.90;;;5.10;;
357;SDS011;167;47.558;7.602;2023-02-21T18:08:51;8.23;;;5.80;;
357;SDS011;167;47.558;7.602;2023-02-21T18:11:19;9.13;;;5.73;;
357;SDS011;167;47.558;7.602;2023-02-21T18:13:45;10.27;;;6.70;;
357;SDS011;167;47.558;7.602;2023-02-21T18:16:11;10.33;;;6.80;;
357;SDS011;167;47.558;7.602;2023-02-21T18:18:37;18.30;;;14.93;;
357;SDS011;167;47.558;7.602;2023-02-21T18:21:03;18.83;;;16.55;;
357;SDS011;167;47.558;7.602;2023-02-21T18:23:30;8.90;;;8.10;;
357;SDS011;167;47.558;7.602;2023-02-21T18:25:56;7.13;;;6.47;;
357;SDS011;167;47.558;7.602;2023-02-21T18:28:22;8.90;;;7.53;;
357;SDS011;167;47.558;7.602;2023-02-21T18:30:48;9.70;;;8.20;;
357;SDS011;167;47.558;7.602;2023-02-21T18:33:16;7.93;;;7.23;;
357;SDS011;167;47.558;7.602;2023-02-21T18:35:42;8.40;;;7.60;;
357;SDS011;167;47.558;7.602;2023-02-21T18:38:08;7.17;;;6.57;;
357;SDS011;167;47.558;7.602;2023-02-21T18:40:34;7.30;;;6.70;;
357;SDS011;167;47.558;7.602;2023-02-21T18:43:02;7.43;;;6.83;;
357;SDS011;167;47.558;7.602;2023-02-21T18:45:31;8.07;;;7.10;;
357;SDS011;167;47.558;7.602;2023-02-21T18:47:59;7.73;;;7.03;;
357;SDS011;167;47.558;7.602;2023-02-21T18:50:25;7.63;;;6.77;;
357;SDS011;167;47.558;7.602;2023-02-21T18:52:51;10.00;;;9.00;;
357;SDS011;167;47.558;7.602;2023-02-21T18:55:17;10.43;;;9.37;;
357;SDS011;167;47.558;7.602;2023-02-21T18:57:44;13.83;;;11.67;;
357;SDS011;167;47.558;7.602;2023-02-21T19:00:12;15.45;;;10.27;;